Piketon, Ohio
Current Conditions -  °F | °C
As of 4:14 AM on Wednesday 22 Oct 2014 (Local Time) from KRZT Reporting Station
Overcast Overcast  
Wind Chill: 37°   Ceiling: 1000
Heat Index: 43°   Visibility: 10mi
Dew Point: 39°   Wind: 9mph
Humidity: 87%   Direction: 10°N
Pressure: 30.17"   Gusts: 17mph
Location:  39.07°N, 83.01°W
Report Text: KRZT 220814Z AUTO 01008G15KT 10SM OVC010 06/04 A3017 RMK AO2
Loading
Personal Weather Stations






























Interactive Weather Map
Tropical Storm Tracking
New forecast layout! Learn more

10-Day Weather Forecast

Advertisements
Track Severe Weather on mobile